Time;durP1;ratioP1;P1;durP2;ratioP2;P2;SDS_P1;SDS_P2;PMS_P1;PMS_P2;Temp;Humidity;BMP_temperature;BMP_pressure;BME280_temperature;BME280_humidity;BME280_pressure;Samples;Min_cycle;Max_cycle;Signal;HPM_P1;HPM_P2
2023/03/07 00:00:14;;;;;;;24.48;16.85;;;5.00;99.90;;;;;;5010106;28;20025;-80
2023/03/07 00:02:40;;;;;;;24.35;16.77;;;5.00;99.90;;;;;;5010897;28;20175;-81
2023/03/07 00:05:07;;;;;;;21.55;16.42;;;5.00;99.90;;;;;;5027385;28;21380;-84
2023/03/07 00:07:34;;;;;;;23.05;15.48;;;5.10;99.90;;;;;;5012216;28;20472;-82
2023/03/07 00:10:00;;;;;;;23.77;16.35;;;5.10;99.90;;;;;;5007786;28;20460;-81
2023/03/07 00:12:26;;;;;;;22.13;16.17;;;5.10;99.90;;;;;;5028998;28;20473;-83
2023/03/07 00:14:54;;;;;;;23.92;15.60;;;5.10;99.90;;;;;;5027759;28;20051;-81
2023/03/07 00:17:21;;;;;;;23.30;15.52;;;5.10;99.90;;;;;;5028274;28;20036;-82
2023/03/07 00:19:47;;;;;;;21.00;14.73;;;5.10;99.90;;;;;;5010933;28;20048;-82
2023/03/07 00:22:13;;;;;;;20.75;14.88;;;5.10;99.90;;;;;;5028054;28;20036;-81
2023/03/07 00:24:40;;;;;;;20.63;13.80;;;5.10;99.90;;;;;;5028651;28;21948;-83
2023/03/07 00:27:07;;;;;;;20.33;13.68;;;5.10;99.90;;;;;;5029825;28;20033;-83
2023/03/07 00:29:33;;;;;;;21.83;12.70;;;5.10;99.90;;;;;;5026917;28;20040;-81
2023/03/07 00:32:00;;;;;;;19.83;12.15;;;5.10;99.90;;;;;;5029713;28;20039;-80
2023/03/07 00:34:26;;;;;;;18.73;12.90;;;5.10;99.90;;;;;;5009985;28;20487;-82
2023/03/07 00:36:52;;;;;;;21.55;13.95;;;5.10;99.90;;;;;;4994098;28;20033;-79
2023/03/07 00:39:19;;;;;;;19.30;11.88;;;5.20;99.90;;;;;;4995157;28;20040;-85
2023/03/07 00:41:45;;;;;;;18.90;12.63;;;5.20;99.90;;;;;;5011000;28;20033;-81
2023/03/07 00:44:11;;;;;;;20.20;13.43;;;5.10;99.90;;;;;;4993438;28;20032;-81
2023/03/07 00:46:38;;;;;;;18.23;12.27;;;5.10;99.90;;;;;;5027147;28;20041;-84
2023/03/07 00:49:04;;;;;;;19.98;12.25;;;5.10;99.90;;;;;;4990309;28;20055;-84
2023/03/07 00:51:31;;;;;;;19.67;12.15;;;5.10;99.90;;;;;;5042035;28;20037;-83
2023/03/07 00:53:57;;;;;;;17.48;11.60;;;5.10;99.90;;;;;;5009666;28;20041;-83
2023/03/07 00:56:25;;;;;;;17.13;11.95;;;5.00;99.90;;;;;;5010055;28;20041;-84
2023/03/07 00:58:52;;;;;;;18.90;11.30;;;5.10;99.90;;;;;;5024279;28;20395;-82
2023/03/07 01:01:24;;;;;;;17.95;11.80;;;5.10;99.90;;;;;;5007839;28;20040;-82
2023/03/07 01:03:55;;;;;;;18.67;11.67;;;5.10;99.90;;;;;;5009767;28;20060;-86
2023/03/07 01:06:24;;;;;;;17.85;10.73;;;5.10;99.90;;;;;;5024382;28;20642;-83
2023/03/07 01:08:52;;;;;;;20.42;11.15;;;5.10;99.90;;;;;;5005769;28;20037;-80
2023/03/07 01:11:19;;;;;;;22.05;12.20;;;5.10;99.90;;;;;;5027358;28;20032;-81
2023/03/07 01:13:46;;;;;;;23.30;12.63;;;5.00;99.90;;;;;;5009007;28;20028;-82
2023/03/07 01:16:15;;;;;;;21.77;12.30;;;5.00;99.90;;;;;;5007677;28;20048;-83
2023/03/07 01:18:49;;;;;;;18.17;11.27;;;5.00;99.90;;;;;;5008707;28;20044;-82
2023/03/07 01:21:18;;;;;;;18.58;10.93;;;5.00;99.90;;;;;;5009296;28;20037;-80
2023/03/07 01:23:45;;;;;;;22.00;12.05;;;5.10;99.90;;;;;;5025985;28;20032;-80
2023/03/07 01:26:13;;;;;;;23.10;13.27;;;5.10;99.90;;;;;;5014203;28;20033;-80
2023/03/07 01:28:40;;;;;;;26.48;15.40;;;5.10;99.90;;;;;;5027786;28;21079;-78
2023/03/07 01:31:07;;;;;;;27.90;15.85;;;5.10;99.90;;;;;;5015253;28;20395;-81
2023/03/07 01:33:34;;;;;;;24.23;15.63;;;5.10;99.90;;;;;;5009257;28;20049;-78
2023/03/07 01:36:01;;;;;;;26.88;15.90;;;5.10;99.90;;;;;;5026937;28;20052;-83
2023/03/07 01:38:32;;;;;;;25.08;15.70;;;5.10;99.90;;;;;;5014817;28;20037;-83
2023/03/07 01:41:01;;;;;;;28.02;16.02;;;5.20;99.90;;;;;;5016388;28;20040;-84
2023/03/07 01:43:33;;;;;;;24.85;15.82;;;5.20;99.90;;;;;;5028493;28;20037;-83
2023/03/07 01:46:17;;;;;;;29.13;15.88;;;5.20;99.90;;;;;;5002299;28;20032;-82
2023/03/07 01:48:51;;;;;;;33.72;18.63;;;5.20;99.90;;;;;;5028854;28;20507;-81
2023/03/07 01:51:18;;;;;;;29.33;18.42;;;5.20;99.90;;;;;;5013216;28;20037;-82
2023/03/07 01:53:47;;;;;;;27.45;15.65;;;5.30;99.90;;;;;;5011552;28;20384;-84
2023/03/07 01:56:13;;;;;;;26.73;16.77;;;5.30;99.90;;;;;;4997602;28;20369;-81
2023/03/07 01:58:40;;;;;;;30.08;17.67;;;5.30;99.90;;;;;;4996734;28;20466;-82
2023/03/07 02:01:10;;;;;;;31.58;17.77;;;5.30;99.90;;;;;;5032423;28;20044;-82
2023/03/07 02:04:00;;;;;;;29.90;17.85;;;5.30;99.90;;;;;;5043916;28;20376;-83
2023/03/07 02:06:29;;;;;;;27.30;16.48;;;5.30;99.90;;;;;;4994810;28;20041;-80
2023/03/07 02:08:59;;;;;;;31.37;16.63;;;5.30;99.90;;;;;;5011343;28;20025;-83
2023/03/07 02:11:25;;;;;;;27.83;16.48;;;5.30;99.90;;;;;;4999042;28;20028;-81
2023/03/07 02:13:52;;;;;;;26.27;16.20;;;5.30;99.90;;;;;;5009895;28;20036;-81
2023/03/07 02:16:19;;;;;;;28.63;15.30;;;5.30;99.90;;;;;;4995707;28;20068;-81
2023/03/07 02:18:48;;;;;;;24.13;14.43;;;5.30;99.90;;;;;;5011570;28;20036;-81
2023/03/07 02:21:28;;;;;;;27.10;16.63;;;5.30;99.90;;;;;;5012493;28;20033;-79
2023/03/07 02:24:25;;;;;;;25.50;15.80;;;5.30;99.90;;;;;;5027552;28;20043;-79
2023/03/07 02:26:52;;;;;;;26.73;15.82;;;5.30;99.90;;;;;;5030453;28;20041;-81
2023/03/07 02:29:19;;;;;;;28.00;15.93;;;5.20;99.90;;;;;;5010976;28;20083;-79
2023/03/07 02:31:47;;;;;;;22.80;14.50;;;5.20;99.90;;;;;;5029397;28;20029;-81
2023/03/07 02:34:28;;;;;;;21.90;14.17;;;5.20;99.90;;;;;;5010532;28;20043;-81
2023/03/07 02:37:24;;;;;;;29.50;18.42;;;5.20;99.90;;;;;;5030174;28;20025;-80
2023/03/07 02:39:53;;;;;;;26.85;15.90;;;5.10;99.90;;;;;;5009726;28;20391;-81
2023/03/07 02:42:27;;;;;;;27.70;16.52;;;5.10;99.90;;;;;;5029337;28;20037;-79
2023/03/07 02:45:09;;;;;;;31.33;17.67;;;5.10;99.90;;;;;;5025932;28;20492;-81
2023/03/07 02:47:37;;;;;;;25.58;15.20;;;5.00;99.90;;;;;;5010809;28;20664;-81
2023/03/07 02:50:04;;;;;;;24.00;15.98;;;5.00;99.90;;;;;;5011372;28;20043;-82
2023/03/07 02:52:33;;;;;;;21.60;14.10;;;5.00;99.90;;;;;;5026903;28;20043;-82
2023/03/07 02:54:59;;;;;;;24.47;14.70;;;4.90;99.90;;;;;;5012000;28;20039;-81
2023/03/07 02:57:30;;;;;;;22.40;13.38;;;4.90;99.90;;;;;;5012931;28;20484;-80
2023/03/07 02:59:58;;;;;;;19.27;13.17;;;4.90;99.90;;;;;;5027381;28;20036;-79
2023/03/07 03:02:25;;;;;;;18.90;11.30;;;4.80;99.90;;;;;;5012382;28;20037;-80
2023/03/07 03:04:51;;;;;;;20.58;12.52;;;4.80;99.90;;;;;;4993796;28;20044;-82
2023/03/07 03:07:21;;;;;;;16.03;11.10;;;4.80;99.90;;;;;;5028697;28;20033;-81
2023/03/07 03:09:47;;;;;;;22.00;12.43;;;4.80;99.90;;;;;;5026357;28;20049;-80
2023/03/07 03:12:14;;;;;;;21.60;11.20;;;4.80;99.90;;;;;;5043937;28;20036;-79
2023/03/07 03:14:40;;;;;;;21.98;12.02;;;4.80;99.90;;;;;;5022960;28;20707;-82
2023/03/07 03:17:06;;;;;;;19.77;11.50;;;4.80;99.90;;;;;;5011470;28;20672;-80
2023/03/07 03:19:33;;;;;;;23.38;12.40;;;4.80;99.90;;;;;;5027903;28;20029;-80
2023/03/07 03:21:59;;;;;;;22.00;12.00;;;4.80;99.90;;;;;;5008795;28;20037;-81
2023/03/07 03:24:29;;;;;;;22.42;12.95;;;4.80;99.90;;;;;;5007647;28;20483;-82
2023/03/07 03:26:56;;;;;;;22.25;11.25;;;4.70;99.90;;;;;;4993183;28;20036;-81
2023/03/07 03:29:24;;;;;;;21.60;11.63;;;4.80;99.90;;;;;;5021897;28;20462;-82
2023/03/07 03:31:53;;;;;;;17.80;9.97;;;4.70;99.90;;;;;;5012523;28;20032;-82
2023/03/07 03:34:20;;;;;;;17.05;10.32;;;4.70;99.90;;;;;;4992291;28;20049;-81
2023/03/07 03:36:46;;;;;;;16.00;9.27;;;4.70;99.90;;;;;;5008308;28;20411;-79
2023/03/07 03:39:13;;;;;;;19.87;10.20;;;4.70;99.90;;;;;;5008123;28;20810;-80
2023/03/07 03:41:45;;;;;;;17.07;9.60;;;4.70;99.90;;;;;;4995142;28;20040;-78
2023/03/07 03:44:11;;;;;;;15.05;8.98;;;4.70;99.90;;;;;;4993843;28;20040;-79
2023/03/07 03:46:37;;;;;;;13.98;8.57;;;4.70;99.90;;;;;;5025150;28;20033;-78
2023/03/07 03:49:04;;;;;;;24.10;10.02;;;4.60;99.90;;;;;;5009032;28;20033;-79
2023/03/07 03:51:31;;;;;;;16.03;8.43;;;4.60;99.90;;;;;;4997343;28;20049;-79
2023/03/07 03:53:58;;;;;;;18.70;8.80;;;4.60;99.90;;;;;;5009218;28;20048;-77
2023/03/07 03:56:26;;;;;;;14.73;7.85;;;4.60;99.90;;;;;;5026992;28;20029;-79
2023/03/07 03:58:54;;;;;;;15.15;8.20;;;4.60;99.90;;;;;;5025031;28;20037;-77
2023/03/07 04:01:23;;;;;;;14.50;8.13;;;4.60;99.90;;;;;;5029158;28;20052;-79
2023/03/07 04:03:51;;;;;;;16.20;7.93;;;4.60;99.90;;;;;;4995966;28;20044;-80
2023/03/07 04:06:24;;;;;;;17.07;9.17;;;4.60;99.90;;;;;;5044002;28;20040;-80
2023/03/07 04:08:51;;;;;;;16.23;9.30;;;4.60;99.90;;;;;;5026890;28;20498;-78
2023/03/07 04:11:20;;;;;;;16.30;8.27;;;4.60;99.90;;;;;;5009631;28;20053;-77
2023/03/07 04:13:46;;;;;;;17.45;10.18;;;4.70;99.90;;;;;;5024659;28;20041;-79
2023/03/07 04:16:13;;;;;;;19.50;10.00;;;4.70;99.90;;;;;;4995356;28;20044;-78
2023/03/07 04:18:40;;;;;;;22.50;9.70;;;4.70;99.90;;;;;;5009352;28;20916;-77
2023/03/07 04:21:06;;;;;;;24.27;10.95;;;4.70;99.90;;;;;;5012155;28;20040;-77
2023/03/07 04:23:33;;;;;;;18.70;9.50;;;4.70;99.90;;;;;;5008511;28;20051;-78
2023/03/07 04:26:03;;;;;;;16.80;10.10;;;4.70;99.90;;;;;;5026684;28;20044;-78
2023/03/07 04:28:47;;;;;;;17.35;9.80;;;4.70;99.90;;;;;;5026220;28;20040;-79
2023/03/07 04:31:23;;;;;;;19.77;10.30;;;4.70;99.90;;;;;;5030034;28;20033;-78
2023/03/07 04:33:52;;;;;;;21.63;10.13;;;4.70;99.90;;;;;;5023480;28;20471;-77
2023/03/07 04:36:20;;;;;;;29.93;12.97;;;4.70;99.90;;;;;;5027450;28;20048;-77
2023/03/07 04:38:47;;;;;;;24.42;11.75;;;4.70;99.90;;;;;;5009872;28;20040;-78
2023/03/07 04:41:18;;;;;;;24.77;12.67;;;4.70;99.90;;;;;;4995069;28;20036;-79
2023/03/07 04:43:46;;;;;;;;;;;4.70;99.90;;;;;;5008205;28;20484;-77
2023/03/07 04:46:14;;;;;;;18.08;10.13;;;4.70;99.90;;;;;;5027481;28;19916;-78
2023/03/07 04:48:41;;;;;;;17.63;10.70;;;4.70;99.90;;;;;;5009539;28;20037;-78
2023/03/07 04:51:08;;;;;;;19.42;9.88;;;4.70;99.90;;;;;;5008040;28;20033;-77
2023/03/07 04:53:35;;;;;;;21.17;9.93;;;4.70;99.90;;;;;;5007451;28;20408;-79
2023/03/07 04:56:04;;;;;;;19.17;10.17;;;4.70;99.90;;;;;;5009208;28;20041;-79
2023/03/07 04:58:32;;;;;;;18.02;9.88;;;4.70;99.90;;;;;;5012267;28;20033;-78
2023/03/07 05:01:00;;;;;;;19.57;8.93;;;4.70;99.90;;;;;;5030125;28;20033;-78
2023/03/07 05:03:27;;;;;;;18.03;8.60;;;4.60;99.90;;;;;;5027972;28;20047;-78
2023/03/07 05:05:53;;;;;;;17.20;7.50;;;4.60;99.90;;;;;;5015004;28;20406;-78
2023/03/07 05:08:21;;;;;;;16.67;7.20;;;4.60;99.90;;;;;;5029923;28;20472;-78
2023/03/07 05:10:48;;;;;;;13.75;7.53;;;4.60;99.90;;;;;;5028475;28;21102;-79
2023/03/07 05:13:14;;;;;;;11.93;5.97;;;4.60;99.90;;;;;;5013130;28;20030;-78
2023/03/07 05:15:41;;;;;;;11.82;5.95;;;4.50;99.90;;;;;;4997730;28;20056;-79
2023/03/07 05:18:07;;;;;;;12.93;6.60;;;4.50;99.90;;;;;;5029369;28;20036;-77
2023/03/07 05:20:34;;;;;;;10.07;5.97;;;4.50;99.90;;;;;;5030319;28;20040;-78
2023/03/07 05:23:00;;;;;;;11.23;5.37;;;4.50;99.90;;;;;;5011196;28;20033;-80
2023/03/07 05:25:27;;;;;;;12.07;5.37;;;4.50;99.90;;;;;;5028678;28;20045;-79
2023/03/07 05:27:54;;;;;;;17.73;6.85;;;4.50;99.90;;;;;;5028651;28;20029;-78
2023/03/07 05:30:21;;;;;;;19.07;6.43;;;4.50;99.90;;;;;;5013483;28;20049;-79
2023/03/07 05:32:47;;;;;;;15.00;7.10;;;4.50;99.90;;;;;;5012855;28;20040;-79
2023/03/07 05:35:15;;;;;;;12.68;6.53;;;4.40;99.90;;;;;;5012345;28;20041;-79
2023/03/07 05:37:42;;;;;;;12.40;5.93;;;4.40;99.90;;;;;;5028040;28;20040;-79
2023/03/07 05:40:09;;;;;;;15.87;5.53;;;4.40;99.90;;;;;;5030590;28;20045;-80
2023/03/07 05:42:38;;;;;;;16.97;7.97;;;4.40;99.90;;;;;;5017158;28;22946;-80
2023/03/07 05:45:06;;;;;;;11.97;6.20;;;4.40;99.90;;;;;;5012188;28;20041;-79
2023/03/07 05:47:32;;;;;;;13.63;7.57;;;4.40;99.90;;;;;;5032086;28;20048;-81
2023/03/07 05:49:58;;;;;;;23.53;9.03;;;4.40;99.90;;;;;;5013665;28;20040;-78
2023/03/07 05:52:25;;;;;;;15.37;8.37;;;4.40;99.90;;;;;;5015965;28;20052;-80
2023/03/07 05:54:52;;;;;;;20.70;9.67;;;4.40;99.90;;;;;;5029051;28;20036;-78
2023/03/07 05:57:18;;;;;;;18.70;8.40;;;4.40;99.90;;;;;;5017570;28;20033;-79
2023/03/07 05:59:45;;;;;;;17.60;7.90;;;4.30;99.90;;;;;;5013875;28;20033;-79
2023/03/07 06:02:11;;;;;;;13.70;6.87;;;4.30;99.90;;;;;;5013760;28;20041;-78
2023/03/07 06:04:37;;;;;;;18.00;7.40;;;4.30;99.90;;;;;;5010720;28;20059;-78
2023/03/07 06:07:04;;;;;;;9.13;4.87;;;4.30;99.90;;;;;;4999601;28;20398;-79
2023/03/07 06:09:30;;;;;;;9.37;4.70;;;4.20;99.90;;;;;;5010630;28;20032;-80
2023/03/07 06:11:58;;;;;;;11.93;5.00;;;4.20;99.90;;;;;;5015574;28;20040;-79
2023/03/07 06:14:25;;;;;;;11.60;5.40;;;4.20;99.90;;;;;;5013372;28;20583;-78
2023/03/07 06:16:51;;;;;;;18.40;5.43;;;4.10;99.90;;;;;;5012102;28;20032;-79
2023/03/07 06:19:18;;;;;;;13.83;5.47;;;4.20;99.90;;;;;;4996238;28;20039;-78
2023/03/07 06:21:44;;;;;;;8.37;5.13;;;4.10;99.90;;;;;;4997831;28;20041;-81
2023/03/07 06:24:11;;;;;;;9.80;4.53;;;4.10;99.90;;;;;;4994297;28;20041;-80
2023/03/07 06:26:38;;;;;;;12.47;5.57;;;4.10;99.90;;;;;;5013168;28;20044;-80
2023/03/07 06:29:05;;;;;;;11.60;3.80;;;4.00;99.90;;;;;;5013429;28;20036;-78
2023/03/07 06:31:31;;;;;;;8.17;2.30;;;3.90;99.90;;;;;;5029820;28;20040;-80
2023/03/07 06:33:59;;;;;;;9.07;1.43;;;3.80;99.90;;;;;;4995808;28;20486;-80
2023/03/07 06:36:26;;;;;;;3.03;0.80;;;3.70;99.90;;;;;;5012837;28;20029;-78
2023/03/07 06:38:56;;;;;;;8.50;1.00;;;3.50;99.90;;;;;;5028278;28;20036;-78
2023/03/07 06:41:24;;;;;;;5.25;0.90;;;3.40;99.90;;;;;;5012776;28;20040;-79
2023/03/07 06:43:52;;;;;;;3.70;0.60;;;3.20;99.90;;;;;;5011172;28;20261;-79
2023/03/07 06:46:23;;;;;;;5.63;0.70;;;3.10;99.90;;;;;;5012712;28;20036;-79
2023/03/07 06:48:50;;;;;;;4.23;0.53;;;3.10;99.90;;;;;;5011901;28;20479;-81
2023/03/07 06:51:19;;;;;;;7.23;1.00;;;3.00;99.90;;;;;;5014237;28;20040;-80
2023/03/07 06:53:46;;;;;;;4.57;0.60;;;3.00;99.90;;;;;;5012195;28;20025;-80
2023/03/07 06:56:13;;;;;;;4.30;0.57;;;2.90;99.90;;;;;;5030347;28;20032;-80
2023/03/07 06:58:40;;;;;;;7.87;0.90;;;2.90;99.90;;;;;;5011679;28;20491;-80
2023/03/07 07:01:15;;;;;;;6.33;0.50;;;2.90;99.90;;;;;;4998429;28;20047;-80
2023/03/07 07:03:42;;;;;;;3.03;0.77;;;2.90;99.90;;;;;;5026223;28;20045;-82
2023/03/07 07:06:09;;;;;;;3.63;0.50;;;2.90;99.90;;;;;;5013254;28;20033;-81
2023/03/07 07:08:35;;;;;;;4.13;0.60;;;2.90;99.90;;;;;;5028625;28;20036;-81
2023/03/07 07:11:01;;;;;;;4.53;0.70;;;2.90;99.90;;;;;;5012671;28;20025;-80
2023/03/07 07:13:29;;;;;;;5.97;0.70;;;2.90;99.90;;;;;;5011863;28;20047;-81
2023/03/07 07:15:55;;;;;;;4.43;0.77;;;2.90;99.90;;;;;;5029004;28;20052;-81
2023/03/07 07:18:24;;;;;;;4.77;0.90;;;2.90;99.90;;;;;;5012034;28;20403;-80
2023/03/07 07:20:56;;;;;;;3.63;0.90;;;2.90;99.90;;;;;;5013658;28;20036;-80
2023/03/07 07:23:27;;;;;;;3.70;1.23;;;2.80;99.90;;;;;;5008762;28;20068;-80
2023/03/07 07:25:54;;;;;;;4.67;1.23;;;2.80;99.90;;;;;;4998002;28;20044;-80
2023/03/07 07:28:21;;;;;;;5.20;1.00;;;2.80;99.90;;;;;;5011323;28;20059;-80
2023/03/07 07:30:47;;;;;;;3.93;0.93;;;2.80;99.90;;;;;;5029757;28;21179;-79
2023/03/07 07:33:15;;;;;;;3.37;1.13;;;2.80;99.90;;;;;;5012744;28;20036;-80
2023/03/07 07:35:45;;;;;;;7.03;1.70;;;2.80;99.90;;;;;;5010898;28;20044;-81
2023/03/07 07:38:13;;;;;;;3.27;1.23;;;2.80;99.90;;;;;;5026318;28;20045;-81
2023/03/07 07:40:39;;;;;;;5.43;1.77;;;2.80;99.90;;;;;;5010634;28;20042;-79
2023/03/07 07:43:06;;;;;;;5.20;1.77;;;2.70;99.90;;;;;;5006586;28;20049;-80
2023/03/07 07:45:40;;;;;;;5.03;1.10;;;2.70;99.90;;;;;;4995451;28;20048;-80
2023/03/07 07:48:09;;;;;;;7.57;1.97;;;2.80;99.90;;;;;;5010022;28;20038;-81
2023/03/07 07:50:36;;;;;;;4.67;1.90;;;2.70;99.90;;;;;;5029234;28;20033;-80
2023/03/07 07:53:02;;;;;;;4.07;1.57;;;2.70;99.90;;;;;;5025640;28;20034;-80
2023/03/07 07:55:29;;;;;;;6.67;1.93;;;2.70;99.90;;;;;;5026793;28;20048;-80
2023/03/07 07:57:55;;;;;;;5.60;2.00;;;2.80;99.90;;;;;;5006940;28;20037;-81
2023/03/07 08:00:22;;;;;;;5.47;2.13;;;2.80;99.90;;;;;;4996825;28;20033;-80
2023/03/07 08:02:50;;;;;;;6.60;2.60;;;2.80;99.90;;;;;;5027001;28;20044;-78
2023/03/07 08:05:20;;;;;;;5.97;2.03;;;2.90;99.90;;;;;;5011810;28;20051;-79
2023/03/07 08:07:49;;;;;;;3.83;1.90;;;2.90;99.90;;;;;;5027081;28;20037;-78
2023/03/07 08:10:16;;;;;;;6.03;2.13;;;2.90;99.90;;;;;;5012426;28;20033;-78
2023/03/07 08:12:43;;;;;;;5.80;2.13;;;2.90;99.90;;;;;;5010765;28;20659;-77
2023/03/07 08:15:11;;;;;;;3.70;2.00;;;2.90;99.90;;;;;;5028161;28;20064;-77
2023/03/07 08:17:37;;;;;;;5.13;1.90;;;3.00;99.90;;;;;;5028188;28;20526;-77
2023/03/07 08:20:08;;;;;;;8.97;2.53;;;2.90;99.90;;;;;;5027759;28;20036;-77
2023/03/07 08:22:36;;;;;;;2.97;1.60;;;2.90;99.90;;;;;;5030055;28;20025;-76
2023/03/07 08:25:04;;;;;;;4.10;1.50;;;2.90;99.90;;;;;;5029417;28;20045;-77
2023/03/07 08:27:30;;;;;;;6.53;2.53;;;2.90;99.90;;;;;;5029629;28;20033;-77
2023/03/07 08:29:57;;;;;;;5.67;2.37;;;2.90;99.90;;;;;;4995641;28;20037;-76
2023/03/07 08:32:24;;;;;;;6.03;2.50;;;2.90;99.90;;;;;;5030973;28;20033;-78
2023/03/07 08:34:51;;;;;;;4.43;2.00;;;3.00;99.90;;;;;;5000977;28;20036;-81
2023/03/07 08:37:17;;;;;;;2.70;1.80;;;3.00;99.90;;;;;;5019192;28;20045;-82
2023/03/07 08:39:44;;;;;;;5.83;2.60;;;3.10;99.90;;;;;;5032074;28;20060;-80
2023/03/07 08:42:10;;;;;;;8.03;3.10;;;3.10;99.90;;;;;;5000512;28;20052;-81
2023/03/07 08:44:36;;;;;;;8.43;3.80;;;3.10;99.90;;;;;;5028523;28;20047;-78
2023/03/07 08:47:02;;;;;;;5.47;2.63;;;3.20;99.90;;;;;;5029082;28;20496;-79
2023/03/07 08:49:29;;;;;;;7.47;3.10;;;3.30;99.90;;;;;;5029274;28;20033;-79
2023/03/07 08:51:55;;;;;;;3.97;2.23;;;3.30;99.90;;;;;;5034711;28;20522;-78
2023/03/07 08:54:21;;;;;;;5.60;2.63;;;3.30;99.90;;;;;;5028491;28;20045;-79
2023/03/07 08:56:48;;;;;;;8.97;3.57;;;3.30;99.90;;;;;;5033271;28;20056;-78
2023/03/07 08:59:14;;;;;;;7.60;4.07;;;3.40;99.90;;;;;;5016890;28;20419;-79
2023/03/07 09:01:40;;;;;;;8.60;4.60;;;3.50;99.90;;;;;;5014643;28;20041;-78
2023/03/07 09:04:07;;;;;;;8.47;4.53;;;3.50;99.90;;;;;;4995066;28;20045;-78
2023/03/07 09:06:33;;;;;;;10.03;5.60;;;3.60;99.90;;;;;;5031623;28;20032;-78
2023/03/07 09:08:59;;;;;;;10.07;5.70;;;3.60;99.90;;;;;;5029331;28;20042;-79
2023/03/07 09:11:26;;;;;;;12.00;7.50;;;3.70;99.90;;;;;;5013672;28;20033;-79
2023/03/07 09:13:52;;;;;;;10.30;6.40;;;3.70;99.90;;;;;;5030364;28;20060;-79
2023/03/07 09:16:19;;;;;;;9.83;6.53;;;3.70;99.90;;;;;;5015304;28;20053;-78
2023/03/07 09:18:45;;;;;;;10.50;7.17;;;3.70;99.90;;;;;;4997007;28;20140;-78
2023/03/07 09:21:13;;;;;;;11.63;8.13;;;3.80;99.90;;;;;;5015405;28;20064;-79
2023/03/07 09:23:40;;;;;;;14.47;9.73;;;3.80;99.90;;;;;;5029401;28;20049;-78
2023/03/07 09:26:07;;;;;;;13.20;8.80;;;3.80;99.90;;;;;;5017105;28;20034;-80
2023/03/07 09:28:33;;;;;;;13.47;9.23;;;3.90;99.90;;;;;;5028608;28;20036;-79
2023/03/07 09:31:06;;;;;;;12.87;9.30;;;4.00;99.90;;;;;;5032174;28;20032;-79
2023/03/07 09:33:33;;;;;;;14.20;9.75;;;4.00;99.90;;;;;;5012559;28;20029;-79
2023/03/07 09:36:02;;;;;;;19.70;11.47;;;4.00;99.90;;;;;;5014127;28;20506;-78
2023/03/07 09:38:28;;;;;;;18.90;12.33;;;4.10;99.90;;;;;;4997130;28;20041;-79
2023/03/07 09:41:00;;;;;;;17.80;11.53;;;4.10;99.90;;;;;;4999754;28;20041;-79
2023/03/07 09:43:42;;;;;;;14.82;9.73;;;4.10;99.90;;;;;;5012144;28;20740;-79
2023/03/07 09:46:57;;;;;;;12.40;8.63;;;4.10;99.90;;;;;;5032378;28;20037;-79
2023/03/07 09:49:45;;;;;;;10.33;7.43;;;4.10;99.90;;;;;;5027158;28;20028;-80
2023/03/07 09:52:15;;;;;;;10.73;8.03;;;4.20;99.90;;;;;;5030553;28;20025;-79
2023/03/07 09:54:47;;;;;;;10.93;7.10;;;4.20;99.90;;;;;;4995468;28;20052;-77
2023/03/07 09:57:21;;;;;;;13.10;7.65;;;4.20;99.90;;;;;;5030549;28;20048;-77
2023/03/07 09:59:52;;;;;;;10.57;7.23;;;4.30;99.90;;;;;;5012990;28;20220;-79
2023/03/07 10:02:35;;;;;;;10.53;6.70;;;4.40;99.90;;;;;;5000527;28;20048;-78
2023/03/07 10:05:08;;;;;;;11.50;7.67;;;4.40;99.90;;;;;;5013495;28;20024;-79
2023/03/07 10:07:35;;;;;;;11.07;8.13;;;4.50;99.90;;;;;;5012811;28;20056;-78
2023/03/07 10:10:09;;;;;;;12.17;7.73;;;4.50;99.90;;;;;;5015545;28;20719;-78
2023/03/07 10:12:35;;;;;;;12.70;6.80;;;4.40;99.90;;;;;;5029374;28;20049;-77
2023/03/07 10:15:04;;;;;;;10.93;7.30;;;4.40;99.90;;;;;;5010692;28;20056;-78
2023/03/07 10:17:49;;;;;;;11.43;8.38;;;4.50;99.90;;;;;;5016863;28;20391;-79
2023/03/07 10:20:45;;;;;;;10.43;7.25;;;4.50;99.90;;;;;;5030270;28;20037;-80
2023/03/07 10:23:20;;;;;;;12.73;7.57;;;4.60;99.90;;;;;;5027718;28;20044;-79
2023/03/07 10:26:08;;;;;;;10.47;7.00;;;4.60;99.90;;;;;;5005513;28;20033;-79
2023/03/07 10:28:38;;;;;;;9.18;6.78;;;4.70;99.90;;;;;;5011853;28;20047;-79
2023/03/07 10:31:24;;;;;;;9.30;6.57;;;4.80;99.90;;;;;;5034241;28;20719;-81
2023/03/07 10:33:52;;;;;;;10.63;7.03;;;5.00;99.90;;;;;;5032186;28;20041;-82
2023/03/07 10:36:39;;;;;;;8.07;6.18;;;5.10;99.90;;;;;;5033504;28;20033;-82
2023/03/07 10:39:26;;;;;;;7.60;5.63;;;5.10;99.90;;;;;;5008381;28;20045;-80
2023/03/07 10:41:53;;;;;;;8.18;5.28;;;5.20;99.90;;;;;;5027594;28;20488;-79
2023/03/07 10:44:21;;;;;;;12.50;6.60;;;5.40;99.90;;;;;;5013763;28;20060;-79
2023/03/07 10:46:53;;;;;;;8.27;5.63;;;5.40;99.90;;;;;;5013157;28;20040;-79
2023/03/07 10:49:30;;;;;;;9.55;5.72;;;5.30;99.90;;;;;;4991815;28;20056;-79
2023/03/07 10:52:11;;;;;;;9.32;5.22;;;5.40;99.90;;;;;;5014649;28;20029;-79
2023/03/07 10:54:38;;;;;;;6.90;5.70;;;5.30;99.90;;;;;;5012945;28;20037;-79
2023/03/07 10:57:14;;;;;;;7.70;5.20;;;5.30;99.90;;;;;;5028241;28;21160;-78
2023/03/07 10:59:43;;;;;;;7.93;4.82;;;5.30;99.90;;;;;;5027293;28;20067;-79
2023/03/07 11:02:30;;;;;;;6.90;5.72;;;5.30;99.90;;;;;;4998130;28;20056;-79
2023/03/07 11:04:57;;;;;;;7.45;4.32;;;5.50;99.90;;;;;;5028297;28;20041;-76
2023/03/07 11:07:31;;;;;;;7.90;5.35;;;5.50;99.90;;;;;;5013404;28;21005;-78
2023/03/07 11:09:59;;;;;;;7.05;3.83;;;5.60;99.90;;;;;;5010303;28;20033;-78
2023/03/07 11:12:28;;;;;;;7.18;3.70;;;5.60;99.90;;;;;;5016114;28;20029;-78
2023/03/07 11:14:57;;;;;;;6.43;4.45;;;5.70;99.90;;;;;;5028501;28;20045;-78
2023/03/07 11:17:39;;;;;;;4.95;3.53;;;5.60;99.90;;;;;;5024851;28;20037;-79
2023/03/07 11:20:48;;;;;;;5.88;3.38;;;5.60;99.90;;;;;;5013448;28;20626;-78
2023/03/07 11:23:29;;;;;;;4.30;2.65;;;5.70;99.90;;;;;;5012968;28;20053;-79
2023/03/07 11:26:13;;;;;;;4.68;2.47;;;5.70;99.90;;;;;;5011489;28;20040;-80
2023/03/07 11:28:40;;;;;;;4.72;2.95;;;5.70;99.90;;;;;;5010421;28;21251;-79
2023/03/07 11:31:38;;;;;;;3.75;2.33;;;5.70;99.90;;;;;;5027290;28;20029;-80
2023/03/07 11:34:31;;;;;;;6.78;2.50;;;5.80;99.90;;;;;;5031818;28;20032;-79
2023/03/07 11:37:14;;;;;;;4.07;2.08;;;5.80;99.90;;;;;;5015553;28;20476;-79
2023/03/07 11:39:46;;;;;;;;;;;5.80;99.90;;;;;;5027219;28;20147;-79
2023/03/07 11:42:21;;;;;;;5.30;1.73;;;5.90;99.90;;;;;;4996839;28;19947;-78
2023/03/07 11:45:25;;;;;;;5.47;2.10;;;5.80;99.90;;;;;;5031296;28;20036;-80
2023/03/07 11:48:01;;;;;;;6.15;2.22;;;5.70;99.90;;;;;;5024756;28;20411;-78
2023/03/07 11:50:31;;;;;;;5.70;2.42;;;5.60;99.90;;;;;;5027084;28;20040;-78
2023/03/07 11:53:06;;;;;;;3.67;2.45;;;5.60;99.90;;;;;;5027596;28;20037;-79
2023/03/07 11:55:52;;;;;;;4.43;1.45;;;5.50;99.90;;;;;;4996956;28;20039;-78
2023/03/07 11:58:43;;;;;;;3.67;2.15;;;5.40;99.90;;;;;;5008664;28;20044;-78
2023/03/07 12:01:29;;;;;;;2.42;1.40;;;5.30;99.90;;;;;;5010753;28;20061;-78
2023/03/07 12:04:04;;;;;;;4.13;1.58;;;5.20;99.90;;;;;;5010452;28;20052;-79
2023/03/07 12:06:38;;;;;;;4.03;1.90;;;5.10;99.90;;;;;;5008881;28;20032;-80
2023/03/07 12:09:28;;;;;;;6.32;2.60;;;5.00;99.90;;;;;;5025342;28;20033;-79
2023/03/07 12:12:19;;;;;;;2.92;2.00;;;5.00;99.90;;;;;;4997204;28;20260;-79
2023/03/07 12:15:02;;;;;;;4.00;1.95;;;5.10;99.90;;;;;;5012618;28;20045;-81
2023/03/07 12:18:05;;;;;;;4.75;2.65;;;5.10;99.90;;;;;;5028222;28;20064;-79
2023/03/07 12:20:53;;;;;;;3.78;2.25;;;5.20;99.90;;;;;;5030102;28;20041;-78
2023/03/07 12:23:37;;;;;;;3.17;2.20;;;5.10;99.90;;;;;;5030070;28;20395;-80
2023/03/07 12:26:26;;;;;;;4.22;1.73;;;5.20;99.90;;;;;;5028966;28;20021;-78
2023/03/07 12:29:00;;;;;;;4.60;2.03;;;5.20;99.90;;;;;;5008400;28;20352;-79
2023/03/07 12:31:41;;;;;;;3.03;1.35;;;5.10;99.90;;;;;;5027431;28;20075;-79
2023/03/07 12:34:16;;;;;;;3.20;1.40;;;5.00;99.90;;;;;;5029349;28;20044;-79
2023/03/07 12:36:48;;;;;;;3.00;1.63;;;4.70;99.90;;;;;;4997156;28;20033;-80
2023/03/07 12:39:21;;;;;;;3.78;1.98;;;4.60;99.90;;;;;;5009596;28;20045;-79
2023/03/07 12:42:13;;;;;;;4.07;1.63;;;4.50;99.90;;;;;;5011768;28;20048;-78
2023/03/07 12:45:02;;;;;;;3.08;1.20;;;4.30;99.90;;;;;;5028005;28;20515;-79
2023/03/07 12:47:58;;;;;;;1.88;0.90;;;4.20;99.90;;;;;;5010552;28;20539;-79
2023/03/07 12:50:36;;;;;;;4.65;1.30;;;4.20;99.90;;;;;;4994253;28;20045;-80
2023/03/07 12:53:22;;;;;;;3.53;0.68;;;4.20;99.90;;;;;;5026012;28;20029;-78
2023/03/07 12:55:59;;;;;;;3.45;0.70;;;4.20;99.90;;;;;;4993919;28;20033;-79
2023/03/07 12:58:50;;;;;;;3.30;0.50;;;4.20;99.90;;;;;;5010134;28;20487;-79
2023/03/07 13:01:31;;;;;;;3.17;0.52;;;4.10;99.90;;;;;;5030971;28;20040;-81
2023/03/07 13:04:03;;;;;;;1.90;0.30;;;4.10;99.90;;;;;;5028193;28;20496;-79
2023/03/07 13:06:31;;;;;;;2.92;0.40;;;4.10;99.90;;;;;;5029340;28;20036;-79